Time;durP1;ratioP1;P1;durP2;ratioP2;P2;SDS_P1;SDS_P2;PMS_P1;PMS_P2;Temp;Humidity;BMP_temperature;BMP_pressure;BME280_temperature;BME280_humidity;BME280_pressure;Samples;Min_cycle;Max_cycle;Signal;HPM_P1;HPM_P2
2023/07/16 00:00:31;;;;;;;12.82;7.72;;;;;;;24.18;65.40;94171.84;5062628;28;20044;-82
2023/07/16 00:02:56;;;;;;;14.52;8.55;;;;;;;24.12;66.05;94179.66;5062490;28;20032;-82
2023/07/16 00:05:22;;;;;;;14.90;8.80;;;;;;;24.07;66.30;94180.03;5062601;28;20024;-82
2023/07/16 00:07:48;;;;;;;15.93;9.18;;;;;;;23.96;66.86;94179.28;5061483;28;20025;-82
2023/07/16 00:10:13;;;;;;;18.80;8.88;;;;;;;23.93;67.33;94182.78;5062657;28;20021;-81
2023/07/16 00:12:39;;;;;;;17.08;8.18;;;;;;;23.93;67.83;94182.78;5062353;28;20021;-81
2023/07/16 00:15:06;;;;;;;14.52;8.75;;;;;;;23.89;67.88;94179.28;5062458;28;20028;-82
2023/07/16 00:17:33;;;;;;;16.10;9.23;;;;;;;23.85;67.74;94179.28;5062421;28;20029;-81
2023/07/16 00:19:58;;;;;;;18.80;10.35;;;;;;;23.78;67.67;94177.34;5062437;28;20275;-81
2023/07/16 00:22:23;;;;;;;16.67;10.25;;;;;;;23.69;68.60;94179.66;5062471;28;20098;-82
2023/07/16 00:24:49;;;;;;;15.32;9.25;;;;;;;23.67;68.55;94173.84;5062383;28;20024;-82
2023/07/16 00:27:15;;;;;;;15.00;9.38;;;;;;;23.72;68.68;94175.38;5062547;28;20029;-81
2023/07/16 00:29:40;;;;;;;14.10;10.27;;;;;;;23.64;68.91;94180.81;5062390;28;20066;-82
2023/07/16 00:32:06;;;;;;;13.40;9.20;;;;;;;23.66;69.28;94182.38;5062390;28;20250;-81
2023/07/16 00:34:31;;;;;;;14.25;9.45;;;;;;;23.63;69.27;94176.56;5064272;28;20031;-82
2023/07/16 00:37:01;;;;;;;15.60;8.98;;;;;;;23.67;69.26;94173.84;5066353;28;20099;-82
2023/07/16 00:39:30;;;;;;;15.35;9.75;;;;;;;23.66;69.77;94180.44;5066378;28;20016;-82
2023/07/16 00:41:56;;;;;;;13.63;9.38;;;;;;;23.66;69.86;94177.72;5066274;28;20277;-81
2023/07/16 00:44:22;;;;;;;20.38;8.70;;;;;;;23.64;70.25;94171.88;5066174;28;20025;-82
2023/07/16 00:46:48;;;;;;;16.58;9.43;;;;;;;23.61;70.07;94169.94;5066192;28;20029;-81
2023/07/16 00:49:13;;;;;;;23.45;9.73;;;;;;;23.61;70.45;94172.66;5066136;28;20071;-82
2023/07/16 00:51:39;;;;;;;14.73;9.52;;;;;;;23.56;71.01;94173.03;5066043;28;20027;-81
2023/07/16 00:54:05;;;;;;;20.17;9.90;;;;;;;23.55;71.04;94179.63;5066022;28;20048;-81
2023/07/16 00:56:32;;;;;;;15.90;9.38;;;;;;;23.53;71.21;94168.38;5065996;28;20129;-82
2023/07/16 00:58:57;;;;;;;13.45;9.95;;;;;;;23.53;70.97;94173.81;5065962;28;20021;-81
2023/07/16 01:01:23;;;;;;;17.73;9.63;;;;;;;23.50;71.10;94169.16;5066007;28;20101;-81
2023/07/16 01:03:48;;;;;;;22.40;9.38;;;;;;;23.49;70.86;94168.38;5065919;28;20433;-82
2023/07/16 01:06:25;;;;;;;16.00;9.98;;;;;;;23.43;71.24;94175.38;5065922;28;20027;-82
2023/07/16 01:09:02;;;;;;;19.83;10.57;;;;;;;23.43;71.20;94178.09;5066069;28;20084;-82
2023/07/16 01:11:29;;;;;;;15.13;10.48;;;;;;;23.40;71.38;94182.34;5065745;28;20196;-81
2023/07/16 01:13:56;;;;;;;12.98;8.68;;;;;;;23.39;71.49;94180.81;5065728;28;20047;-82
2023/07/16 01:16:24;;;;;;;18.90;9.52;;;;;;;23.36;71.71;94172.63;5065820;28;20307;-81
2023/07/16 01:18:50;;;;;;;22.75;10.77;;;;;;;23.28;71.43;94171.06;5065755;28;20028;-82
2023/07/16 01:21:18;;;;;;;20.48;9.82;;;;;;;23.22;71.73;94176.09;5065590;28;20315;-82
2023/07/16 01:23:47;;;;;;;18.38;10.10;;;;;;;23.18;72.04;94183.47;5065844;28;20028;-81
2023/07/16 01:26:30;;;;;;;14.98;9.68;;;;;;;23.13;71.84;94181.16;5065870;28;20315;-81
2023/07/16 01:29:10;;;;;;;18.10;9.55;;;;;;;23.10;71.69;94184.63;5065479;28;20021;-81
2023/07/16 01:32:04;;;;;;;17.52;10.48;;;;;;;22.98;72.60;94172.94;5065315;28;20017;-81
2023/07/16 01:34:33;;;;;;;16.77;9.38;;;;;;;22.96;72.91;94174.47;5063982;28;20095;-81
2023/07/16 01:37:01;;;;;;;20.65;11.63;;;;;;;22.94;73.36;94177.59;5064402;28;20044;-81
2023/07/16 01:39:27;;;;;;;18.60;10.32;;;;;;;22.90;73.38;94171.38;5064367;28;20028;-82
2023/07/16 01:41:52;;;;;;;13.85;9.13;;;;;;;22.87;73.79;94166.69;5065624;28;20088;-80
2023/07/16 01:44:17;;;;;;;17.38;11.02;;;;;;;22.86;73.80;94177.94;5065519;28;20025;-81
2023/07/16 01:46:43;;;;;;;21.33;10.15;;;;;;;22.84;73.74;94178.34;5064747;28;20028;-81
2023/07/16 01:49:09;;;;;;;17.05;10.30;;;;;;;22.82;73.37;94183.38;5065531;28;20032;-81
2023/07/16 01:51:34;;;;;;;21.52;10.30;;;;;;;22.80;72.79;94177.53;5065537;28;20210;-82
2023/07/16 01:53:59;;;;;;;16.48;10.70;;;;;;;22.69;73.67;94188.34;5065046;28;20061;-81
2023/07/16 01:56:25;;;;;;;17.75;10.55;;;;;;;22.66;73.92;94182.94;5065058;28;20025;-81
2023/07/16 01:58:50;;;;;;;17.13;10.57;;;;;;;22.64;73.96;94181.34;5064880;28;20025;-81
2023/07/16 02:01:16;;;;;;;16.58;10.57;;;;;;;22.59;74.07;94184.47;5064831;28;20096;-82
2023/07/16 02:03:41;;;;;;;22.08;10.02;;;;;;;22.51;74.33;94188.31;5064750;28;20184;-81
2023/07/16 02:06:07;;;;;;;17.60;10.20;;;;;;;22.55;74.26;94189.09;5064712;28;20025;-82
2023/07/16 02:08:32;;;;;;;17.73;9.82;;;;;;;22.52;74.55;94180.91;5064705;28;20029;-81
2023/07/16 02:10:57;;;;;;;18.58;10.98;;;;;;;22.49;75.10;94177.03;5064695;28;20270;-82
2023/07/16 02:13:23;;;;;;;19.33;11.23;;;;;;;22.46;75.02;94177.78;5064600;28;20025;-81
2023/07/16 02:15:48;;;;;;;19.10;10.70;;;;;;;22.41;75.72;94178.16;5063385;28;20215;-82
2023/07/16 02:18:14;;;;;;;21.42;11.25;;;;;;;22.41;75.63;94173.50;5064375;28;20313;-81
2023/07/16 02:20:39;;;;;;;21.42;9.90;;;;;;;22.48;75.87;94178.19;5063136;28;20032;-82
2023/07/16 02:23:05;;;;;;;17.33;10.13;;;;;;;22.46;75.64;94179.72;5064526;28;20016;-81
2023/07/16 02:25:32;;;;;;;17.92;10.90;;;;;;;22.37;75.98;94183.56;5064367;28;20092;-81
2023/07/16 02:27:57;;;;;;;19.90;12.27;;;;;;;22.33;76.31;94180.06;5064274;28;20024;-82
2023/07/16 02:30:23;;;;;;;19.73;11.35;;;;;;;22.30;76.61;94177.31;5064328;28;20032;-82
2023/07/16 02:32:48;;;;;;;16.27;11.90;;;;;;;22.31;76.68;94182.38;5063928;28;20035;-82
2023/07/16 02:35:15;;;;;;;15.88;10.82;;;;;;;22.35;76.64;94185.88;5064381;28;20021;-82
2023/07/16 02:37:40;;;;;;;12.48;10.00;;;;;;;22.36;76.56;94194.81;5064128;28;20044;-82
2023/07/16 02:40:07;;;;;;;14.63;9.98;;;;;;;22.37;76.12;94193.66;5064007;28;20340;-81
2023/07/16 02:42:32;;;;;;;17.17;9.40;;;;;;;22.39;75.92;94194.06;5064024;28;20027;-81
2023/07/16 02:44:57;;;;;;;18.02;9.80;;;;;;;22.39;76.22;94188.63;5064091;28;20025;-82
2023/07/16 02:47:23;;;;;;;15.15;10.60;;;;;;;22.33;76.38;94199.06;5063859;28;20326;-81
2023/07/16 02:49:51;;;;;;;15.10;11.10;;;;;;;22.20;77.07;94201.28;5063710;28;20021;-81
2023/07/16 02:52:17;;;;;;;21.38;9.88;;;;;;;22.21;76.76;94191.97;5063945;28;20024;-81
2023/07/16 02:54:42;;;;;;;20.90;10.85;;;;;;;22.17;77.13;94202.03;5063802;28;20377;-81
2023/07/16 02:57:08;;;;;;;18.08;10.93;;;;;;;22.17;77.23;94187.69;5063350;28;20021;-81
2023/07/16 02:59:33;;;;;;;23.40;11.18;;;;;;;22.17;77.33;94188.47;5063722;28;20021;-81
2023/07/16 03:01:59;;;;;;;17.05;10.98;;;;;;;22.17;77.58;94199.31;5062487;28;20044;-81
2023/07/16 03:04:24;;;;;;;18.20;11.15;;;;;;;22.12;77.70;94188.81;5063587;28;20287;-80
2023/07/16 03:06:50;;;;;;;19.42;10.10;;;;;;;22.11;77.79;94189.97;5063605;28;20031;-80
2023/07/16 03:09:15;;;;;;;26.23;11.10;;;;;;;22.07;78.14;94197.31;5063657;28;20029;-81
2023/07/16 03:11:41;;;;;;;15.68;10.15;;;;;;;22.05;78.13;94194.22;5063542;28;20299;-81
2023/07/16 03:14:06;;;;;;;17.23;9.75;;;;;;;22.01;78.04;94198.84;5063481;28;20138;-81
2023/07/16 03:16:32;;;;;;;21.58;10.27;;;;;;;21.97;78.26;94198.81;5063535;28;20031;-81
2023/07/16 03:18:57;;;;;;;17.73;10.85;;;;;;;21.89;78.46;94204.56;5063252;28;20319;-81
2023/07/16 03:21:23;;;;;;;16.90;11.07;;;;;;;21.86;78.92;94208.03;5063272;28;20252;-81
2023/07/16 03:23:48;;;;;;;20.38;10.88;;;;;;;21.85;78.56;94201.81;5063282;28;20021;-81
2023/07/16 03:26:13;;;;;;;14.32;10.73;;;;;;;21.84;78.74;94211.13;5063532;28;20254;-80
2023/07/16 03:28:39;;;;;;;15.35;9.82;;;;;;;21.84;78.97;94211.91;5062185;28;20025;-81
2023/07/16 03:31:05;;;;;;;16.45;10.00;;;;;;;21.90;79.10;94216.97;5063074;28;20013;-81
2023/07/16 03:33:30;;;;;;;19.58;11.57;;;;;;;21.92;79.26;94217.38;5063186;28;20020;-81
2023/07/16 03:35:55;;;;;;;16.45;11.25;;;;;;;22.02;78.84;94216.66;5063355;28;20017;-81
2023/07/16 03:38:21;;;;;;;15.30;9.98;;;;;;;22.06;78.87;94212.03;5063157;28;20017;-81
2023/07/16 03:40:49;;;;;;;14.13;10.55;;;;;;;22.11;78.52;94208.97;5062936;28;20091;-81
2023/07/16 03:43:15;;;;;;;20.95;10.82;;;;;;;22.07;78.74;94212.84;5063281;28;20337;-81
2023/07/16 03:45:41;;;;;;;16.27;10.85;;;;;;;22.06;78.89;94228.31;5063233;28;20027;-81
2023/07/16 03:48:07;;;;;;;20.15;10.60;;;;;;;22.08;78.78;94225.25;5063015;28;20033;-81
2023/07/16 03:50:32;;;;;;;28.25;10.73;;;;;;;22.11;78.98;94222.56;5063070;28;20036;-81
2023/07/16 03:52:58;;;;;;;23.42;10.57;;;;;;;22.19;78.82;94213.31;5062810;28;20087;-80
2023/07/16 03:55:24;;;;;;;19.00;11.32;;;;;;;22.18;78.66;94214.44;5062879;28;20049;-81
2023/07/16 03:57:49;;;;;;;18.63;9.52;;;;;;;22.18;78.73;94217.16;5062902;28;20071;-81
2023/07/16 04:00:15;;;;;;;19.40;11.13;;;;;;;22.26;78.34;94209.88;5062990;28;20021;-81
2023/07/16 04:02:40;;;;;;;16.50;10.20;;;;;;;22.32;77.82;94216.50;5062745;28;20227;-81
2023/07/16 04:05:06;;;;;;;19.88;9.93;;;;;;;22.40;77.51;94225.47;5063784;28;20025;-81
2023/07/16 04:07:32;;;;;;;21.77;10.05;;;;;;;22.40;77.42;94220.81;5062685;28;20023;-81
2023/07/16 04:09:57;;;;;;;26.65;10.38;;;;;;;22.47;77.15;94222.81;5062187;28;20222;-81
2023/07/16 04:12:23;;;;;;;18.17;9.98;;;;;;;22.57;77.07;94227.53;5062968;28;20084;-81
2023/07/16 04:14:48;;;;;;;11.50;8.68;;;;;;;22.65;75.46;94228.31;5062688;28;20141;-81
2023/07/16 04:17:14;;;;;;;15.85;10.30;;;;;;;22.71;74.60;94228.72;5062820;28;20025;-81
2023/07/16 04:19:39;;;;;;;20.50;10.13;;;;;;;22.77;74.53;94229.94;5062928;28;20017;-81
2023/07/16 04:22:05;;;;;;;17.23;8.82;;;;;;;22.85;74.86;94234.22;5063113;28;20025;-80
2023/07/16 04:24:31;;;;;;;18.42;9.30;;;;;;;22.83;74.81;94231.88;5062880;28;20024;-81
2023/07/16 04:26:58;;;;;;;17.35;8.40;;;;;;;22.88;74.36;94230.75;5062540;28;20223;-81
2023/07/16 04:29:23;;;;;;;16.45;9.10;;;;;;;22.93;74.45;94235.03;5062599;28;20025;-80
2023/07/16 04:31:49;;;;;;;19.10;8.60;;;;;;;22.97;73.83;94239.31;5062437;28;20052;-81
2023/07/16 04:34:14;;;;;;;15.60;8.77;;;;;;;22.95;73.59;94238.16;5062585;28;20017;-81
2023/07/16 04:36:41;;;;;;;21.60;9.15;;;;;;;22.93;73.70;94243.19;5062519;28;20021;-81
2023/07/16 04:39:07;;;;;;;15.30;8.95;;;;;;;23.02;73.35;94244.44;5062594;28;20095;-81
2023/07/16 04:41:32;;;;;;;20.27;9.00;;;;;;;23.09;73.20;94234.75;5062338;28;20193;-81
2023/07/16 04:43:58;;;;;;;16.90;8.68;;;;;;;23.11;72.91;94235.13;5062380;28;20083;-81
2023/07/16 04:46:23;;;;;;;14.75;7.57;;;;;;;23.11;72.55;94235.13;5062389;28;20068;-80
2023/07/16 04:48:48;;;;;;;15.65;8.48;;;;;;;23.14;72.65;94243.31;5062768;28;20044;-80
2023/07/16 04:51:14;;;;;;;19.45;10.50;;;;;;;23.20;72.64;94251.84;5062616;28;20326;-81
2023/07/16 04:53:39;;;;;;;15.13;8.27;;;;;;;23.22;72.21;94241.38;5062684;28;20040;-80
2023/07/16 04:56:13;;;;;;;14.65;8.57;;;;;;;23.23;72.16;94248.38;5062670;28;20013;-80
2023/07/16 04:58:39;;;;;;;23.27;8.40;;;;;;;23.21;71.60;94251.47;5062737;28;20080;-81
2023/07/16 05:01:04;;;;;;;16.02;8.20;;;;;;;23.21;72.14;94248.75;5062547;28;20021;-80
2023/07/16 05:03:30;;;;;;;21.88;8.68;;;;;;;23.19;72.65;94251.06;5062837;28;20070;-81
2023/07/16 05:05:55;;;;;;;19.13;8.52;;;;;;;23.28;72.67;94255.38;5062640;28;20252;-81
2023/07/16 05:08:21;;;;;;;11.80;8.25;;;;;;;23.32;72.89;94256.94;5062799;28;20093;-81
2023/07/16 05:10:46;;;;;;;13.70;7.43;;;;;;;23.33;72.02;94255.78;5063579;28;20059;-82
2023/07/16 05:13:12;;;;;;;20.58;9.43;;;;;;;23.30;71.59;94258.47;5063707;28;20017;-82
2023/07/16 05:15:38;;;;;;;19.17;8.90;;;;;;;23.38;71.56;94255.41;5063605;28;20020;-81
2023/07/16 05:18:03;;;;;;;17.48;8.02;;;;;;;23.42;71.04;94247.25;5063198;28;20016;-81
2023/07/16 05:20:29;;;;;;;14.77;8.48;;;;;;;23.52;70.52;94249.22;5062942;28;20040;-80
2023/07/16 05:22:54;;;;;;;14.23;8.52;;;;;;;23.62;70.46;94253.88;5066489;28;20025;-81
2023/07/16 05:25:20;;;;;;;11.82;7.88;;;;;;;23.70;70.21;94243.03;5067076;28;20048;-81
2023/07/16 05:27:45;;;;;;;17.40;7.53;;;;;;;23.73;69.44;94250.41;5067204;28;20043;-81
2023/07/16 05:30:11;;;;;;;14.05;7.72;;;;;;;23.76;69.46;94255.84;5067259;28;20241;-81
2023/07/16 05:32:36;;;;;;;9.30;6.60;;;;;;;23.87;69.36;94252.38;5066833;28;20124;-80
2023/07/16 05:35:02;;;;;;;16.88;7.07;;;;;;;23.97;68.47;94252.38;5066574;28;20013;-82
2023/07/16 05:37:27;;;;;;;9.70;5.57;;;;;;;24.07;68.08;94255.50;5066225;28;20219;-81
2023/07/16 05:39:53;;;;;;;11.68;4.78;;;;;;;24.20;67.21;94259.38;5066026;28;20048;-82
2023/07/16 05:42:18;;;;;;;8.57;5.10;;;;;;;24.27;65.37;94253.94;5064644;28;20016;-81
2023/07/16 05:44:44;;;;;;;11.00;4.53;;;;;;;24.34;65.06;94259.38;5066106;28;20331;-81
2023/07/16 05:47:10;;;;;;;11.20;5.80;;;;;;;24.41;65.19;94264.03;5066214;28;20040;-81
2023/07/16 05:49:35;;;;;;;14.60;5.35;;;;;;;24.42;65.11;94265.56;5065718;28;20021;-81
2023/07/16 05:52:01;;;;;;;9.05;4.82;;;;;;;24.51;64.61;94281.56;5065177;28;20025;-81
2023/07/16 05:54:26;;;;;;;11.98;4.35;;;;;;;24.52;64.53;94270.25;5065765;28;20335;-81
2023/07/16 05:56:52;;;;;;;9.55;4.72;;;;;;;24.56;64.93;94275.72;5066995;28;20032;-81
2023/07/16 05:59:17;;;;;;;13.75;5.40;;;;;;;24.72;64.95;94278.78;5065442;28;20024;-81
2023/07/16 06:01:43;;;;;;;12.13;5.55;;;;;;;24.87;64.59;94273.28;5065653;28;20036;-81
2023/07/16 06:04:08;;;;;;;11.60;4.38;;;;;;;24.95;63.46;94270.16;5066268;28;20047;-80
2023/07/16 06:06:33;;;;;;;8.75;4.95;;;;;;;25.07;62.96;94270.88;5065282;28;20092;-82
2023/07/16 06:08:59;;;;;;;9.90;4.95;;;;;;;25.22;62.88;94272.41;5065476;28;20097;-80
2023/07/16 06:11:24;;;;;;;10.60;4.90;;;;;;;25.33;63.01;94278.59;5064334;28;20024;-81
2023/07/16 06:13:52;;;;;;;10.82;5.43;;;;;;;25.44;62.65;94273.06;5064849;28;20288;-80
2023/07/16 06:16:18;;;;;;;14.60;5.53;;;;;;;25.53;62.55;94281.59;5064999;28;20032;-80
2023/07/16 06:18:43;;;;;;;10.77;5.10;;;;;;;25.62;62.48;94281.97;5065572;28;20017;-81
2023/07/16 06:21:09;;;;;;;13.60;4.97;;;;;;;25.68;61.70;94281.53;5065044;28;20028;-81
2023/07/16 06:23:34;;;;;;;9.63;4.65;;;;;;;25.75;60.47;94274.06;5065172;28;20200;-82
2023/07/16 06:25:59;;;;;;;9.30;4.68;;;;;;;25.85;61.16;94282.56;5065195;28;20025;-81
2023/07/16 06:28:25;;;;;;;10.77;5.18;;;;;;;25.94;61.18;94280.97;5065066;28;20048;-81
2023/07/16 06:30:53;;;;;;;15.57;4.88;;;;;;;25.98;60.10;94273.53;5065032;28;20024;-81
2023/07/16 06:33:19;;;;;;;11.63;6.28;;;;;;;25.97;59.75;94268.47;5063076;28;20037;-80
2023/07/16 06:35:46;;;;;;;11.35;4.90;;;;;;;26.00;59.63;94281.34;5064837;28;20025;-81
2023/07/16 06:38:11;;;;;;;15.85;5.32;;;;;;;26.06;59.48;94268.81;5064739;28;20021;-81
2023/07/16 06:40:37;;;;;;;13.30;5.30;;;;;;;26.14;59.87;94275.00;5064755;28;20036;-82
2023/07/16 06:43:02;;;;;;;10.63;5.72;;;;;;;26.25;59.64;94272.16;5064356;28;20078;-80
2023/07/16 06:45:28;;;;;;;10.40;5.32;;;;;;;26.19;58.35;94272.59;5064419;28;20025;-81
2023/07/16 06:47:53;;;;;;;19.95;4.97;;;;;;;26.17;58.99;94269.47;5064056;28;20036;-81
2023/07/16 06:50:19;;;;;;;16.23;5.28;;;;;;;26.00;59.40;94271.19;5063924;28;20096;-81
2023/07/16 06:52:44;;;;;;;8.90;4.90;;;;;;;25.95;59.38;94268.09;5063993;28;20063;-81
2023/07/16 06:55:10;;;;;;;10.35;4.40;;;;;;;25.96;59.41;94272.38;5063680;28;20051;-81
2023/07/16 06:57:35;;;;;;;9.13;5.35;;;;;;;26.00;59.38;94268.44;5063908;28;20062;-81
2023/07/16 07:00:00;;;;;;;12.10;4.40;;;;;;;26.06;59.39;94260.59;5063782;28;20391;-81
2023/07/16 07:02:26;;;;;;;15.18;5.50;;;;;;;26.08;59.35;94273.88;5063727;28;20091;-81
2023/07/16 07:04:51;;;;;;;11.90;4.97;;;;;;;26.16;59.39;94272.63;5063695;28;20099;-81
2023/07/16 07:07:17;;;;;;;9.68;5.00;;;;;;;26.26;58.72;94276.47;5063795;28;20017;-82
2023/07/16 07:09:42;;;;;;;12.70;5.75;;;;;;;26.22;58.40;94265.56;5063716;28;20373;-81
2023/07/16 07:12:08;;;;;;;14.18;5.43;;;;;;;26.16;59.22;94269.91;5063576;28;20206;-81
2023/07/16 07:14:33;;;;;;;9.45;5.03;;;;;;;26.14;59.63;94264.84;5062492;28;20025;-81
2023/07/16 07:16:59;;;;;;;7.93;5.38;;;;;;;26.34;59.32;94275.22;5063434;28;20027;-81
2023/07/16 07:19:24;;;;;;;9.48;4.90;;;;;;;26.40;58.04;94265.41;5063490;28;20017;-81
2023/07/16 07:21:50;;;;;;;9.10;5.25;;;;;;;26.51;57.90;94271.53;5063274;28;20024;-80
2023/07/16 07:24:15;;;;;;;15.25;5.50;;;;;;;26.64;57.66;94271.81;5063762;28;20303;-80
2023/07/16 07:26:41;;;;;;;7.45;5.72;;;;;;;26.65;57.70;94270.63;5063257;28;20025;-81
2023/07/16 07:29:06;;;;;;;7.28;4.93;;;;;;;26.72;57.66;94270.56;5063335;28;20020;-81
2023/07/16 07:31:32;;;;;;;12.07;5.55;;;;;;;26.69;57.34;94265.91;5063359;28;20062;-81
2023/07/16 07:33:58;;;;;;;7.88;5.20;;;;;;;26.67;58.05;94272.97;5063342;28;20020;-81
2023/07/16 07:36:24;;;;;;;10.93;5.43;;;;;;;26.87;57.88;94267.66;5063462;28;20024;-81
2023/07/16 07:38:49;;;;;;;12.93;5.90;;;;;;;27.02;57.56;94272.56;5062973;28;20045;-80
2023/07/16 07:41:14;;;;;;;12.27;6.65;;;;;;;27.06;56.02;94260.81;5063074;28;20084;-80
2023/07/16 07:43:40;;;;;;;12.35;5.28;;;;;;;27.19;55.97;94264.56;5062318;28;20044;-81
2023/07/16 07:46:05;;;;;;;17.27;5.85;;;;;;;27.31;55.94;94268.75;5062990;28;20077;-81
2023/07/16 07:48:31;;;;;;;9.50;5.18;;;;;;;27.37;54.89;94264.34;5062956;28;20204;-81
2023/07/16 07:50:57;;;;;;;10.75;5.78;;;;;;;27.46;54.76;94266.59;5063038;28;20024;-81
2023/07/16 07:53:22;;;;;;;13.07;5.70;;;;;;;27.46;54.92;94261.91;5062807;28;20028;-80
2023/07/16 07:55:48;;;;;;;11.20;5.95;;;;;;;27.51;54.83;94261.44;5062865;28;20024;-81
2023/07/16 07:58:13;;;;;;;12.13;5.72;;;;;;;27.60;54.36;94261.72;5062943;28;20041;-81
2023/07/16 08:00:39;;;;;;;13.75;5.70;;;;;;;27.67;54.84;94263.56;5062873;28;20084;-81
2023/07/16 08:03:04;;;;;;;16.50;6.20;;;;;;;27.79;55.13;94263.00;5062763;28;20192;-80
2023/07/16 08:05:30;;;;;;;11.57;6.20;;;;;;;27.92;54.27;94262.44;5062789;28;20032;-81
2023/07/16 08:07:55;;;;;;;10.73;6.28;;;;;;;28.02;53.53;94265.00;5062910;28;20028;-80
2023/07/16 08:10:21;;;;;;;14.05;6.43;;;;;;;28.12;53.56;94263.28;5062592;28;20021;-80
2023/07/16 08:12:47;;;;;;;10.93;5.45;;;;;;;28.11;52.70;94264.50;5062968;28;20024;-80
2023/07/16 08:15:14;;;;;;;12.88;5.50;;;;;;;28.08;51.77;94257.09;5062699;28;20028;-80
2023/07/16 08:17:43;;;;;;;11.45;6.05;;;;;;;28.04;51.68;94259.13;5062574;28;20027;-80
2023/07/16 08:20:09;;;;;;;14.27;5.90;;;;;;;28.07;52.56;94268.47;5062636;28;20029;-80
2023/07/16 08:22:34;;;;;;;13.07;6.07;;;;;;;27.95;52.87;94265.13;5062541;28;20032;-80
2023/07/16 08:25:00;;;;;;;12.13;6.32;;;;;;;28.04;53.07;94261.09;5062654;28;20040;-81
2023/07/16 08:27:25;;;;;;;12.60;6.32;;;;;;;28.09;51.81;94269.63;5061300;28;20021;-80
2023/07/16 08:29:51;;;;;;;16.67;6.63;;;;;;;28.15;51.62;94267.97;5062535;28;20048;-81
2023/07/16 08:32:16;;;;;;;14.20;8.45;;;;;;;28.23;51.82;94274.09;5062456;28;20021;-80
2023/07/16 08:34:42;;;;;;;10.98;6.50;;;;;;;28.38;51.41;94263.66;5062376;28;20055;-80
2023/07/16 08:37:07;;;;;;;11.30;5.95;;;;;;;28.46;51.83;94258.84;5062254;28;20223;-80
2023/07/16 08:39:33;;;;;;;16.38;5.75;;;;;;;28.53;50.78;94259.50;5061209;28;20257;-80
2023/07/16 08:41:59;;;;;;;10.85;5.68;;;;;;;28.58;50.73;94261.78;5061161;28;20056;-80
2023/07/16 08:44:24;;;;;;;8.52;5.20;;;;;;;28.62;50.25;94256.22;5062286;28;20050;-80
2023/07/16 08:46:51;;;;;;;11.98;5.68;;;;;;;28.64;50.31;94261.28;5062444;28;20324;-80
2023/07/16 08:49:19;;;;;;;8.82;4.88;;;;;;;28.72;49.73;94262.69;5062276;28;20037;-80
2023/07/16 08:51:47;;;;;;;14.05;5.90;;;;;;;28.59;49.78;94260.56;5062635;28;20071;-80
2023/07/16 08:54:15;;;;;;;12.88;5.22;;;;;;;28.58;50.41;94256.28;5062313;28;20044;-81
2023/07/16 08:56:42;;;;;;;13.85;6.28;;;;;;;28.72;50.67;94251.72;5065690;28;20318;-81
2023/07/16 08:59:08;;;;;;;12.50;6.20;;;;;;;28.87;50.60;94255.75;5066013;28;20284;-81
2023/07/16 09:01:33;;;;;;;17.70;7.05;;;;;;;28.95;50.08;94251.66;5066021;28;20062;-81
2023/07/16 09:03:59;;;;;;;8.80;6.03;;;;;;;29.01;49.68;94254.69;5066008;28;20133;-81
2023/07/16 09:06:25;;;;;;;9.95;5.88;;;;;;;29.19;50.00;94262.63;5066020;28;20032;-80
2023/07/16 09:08:51;;;;;;;12.52;6.30;;;;;;;29.28;47.99;94257.31;5066014;28;20024;-81
2023/07/16 09:11:21;;;;;;;12.68;5.90;;;;;;;29.27;47.94;94255.78;5065864;28;20067;-81
2023/07/16 09:13:46;;;;;;;25.02;6.80;;;;;;;29.40;48.62;94251.16;5065955;28;20048;-81
2023/07/16 09:16:12;;;;;;;11.18;6.35;;;;;;;29.43;48.64;94248.78;5065732;28;20036;-81
2023/07/16 09:18:40;;;;;;;11.90;7.20;;;;;;;29.53;48.85;94253.25;5065593;28;20036;-80
2023/07/16 09:21:06;;;;;;;12.95;6.38;;;;;;;29.63;48.23;94249.50;5065474;28;20020;-81
2023/07/16 09:23:32;;;;;;;12.23;6.32;;;;;;;29.74;47.78;94244.59;5064520;28;20188;-81
2023/07/16 09:25:58;;;;;;;11.32;6.45;;;;;;;29.78;47.18;94239.00;5065569;28;20261;-81
2023/07/16 09:28:23;;;;;;;21.48;7.57;;;;;;;29.87;47.26;94243.91;5065226;28;20065;-81
2023/07/16 09:30:50;;;;;;;12.23;6.70;;;;;;;29.95;46.94;94240.56;5065469;28;20020;-81
2023/07/16 09:33:25;;;;;;;14.25;6.43;;;;;;;29.96;47.29;94233.88;5065652;28;20214;-81
2023/07/16 09:35:51;;;;;;;14.23;6.18;;;;;;;29.94;46.27;94235.47;5065365;28;20047;-81
2023/07/16 09:38:18;;;;;;;10.68;6.43;;;;;;;29.99;46.70;94240.47;5065289;28;20358;-81
2023/07/16 09:40:44;;;;;;;19.10;6.78;;;;;;;29.87;45.95;94244.66;5064163;28;20041;-81
2023/07/16 09:43:11;;;;;;;14.98;6.50;;;;;;;29.91;46.17;94236.34;5065242;28;20265;-81
2023/07/16 09:45:37;;;;;;;12.93;6.82;;;;;;;29.96;46.53;94238.56;5065247;28;20029;-81
2023/07/16 09:48:03;;;;;;;14.23;7.30;;;;;;;30.08;47.10;94228.88;5065032;28;20029;-80
2023/07/16 09:50:31;;;;;;;17.63;7.10;;;;;;;30.24;46.86;94236.34;5064753;28;20307;-81
2023/07/16 09:52:57;;;;;;;20.10;7.28;;;;;;;30.39;46.35;94232.06;5064899;28;20303;-82
2023/07/16 09:55:24;;;;;;;12.15;7.25;;;;;;;30.50;45.84;94238.06;5064724;28;20098;-81
2023/07/16 09:57:53;;;;;;;18.83;6.60;;;;;;;30.60;45.48;94226.00;5063638;28;20017;-81
2023/07/16 10:00:21;;;;;;;18.77;7.38;;;;;;;30.73;44.74;94230.78;5064702;28;20021;-80
2023/07/16 10:02:47;;;;;;;14.98;7.20;;;;;;;30.82;45.40;94225.44;5063711;28;20025;-82
2023/07/16 10:05:17;;;;;;;16.95;6.07;;;;;;;30.94;44.87;94226.72;5064878;28;20024;-81
2023/07/16 10:07:49;;;;;;;15.10;6.68;;;;;;;30.99;44.47;94218.69;5062725;28;20017;-81
2023/07/16 10:10:17;;;;;;;10.23;6.63;;;;;;;31.13;43.99;94223.00;5064777;28;20024;-81
2023/07/16 10:12:54;;;;;;;13.90;6.35;;;;;;;31.17;43.14;94222.91;5064695;28;20024;-81
2023/07/16 10:15:27;;;;;;;12.48;6.68;;;;;;;31.09;43.19;94221.56;5064357;28;20044;-81
2023/07/16 10:17:53;;;;;;;11.50;7.50;;;;;;;31.15;43.34;94219.81;5064478;28;20024;-81
2023/07/16 10:20:32;;;;;;;21.02;7.20;;;;;;;31.26;43.80;94214.00;5064327;28;20025;-81
2023/07/16 10:22:58;;;;;;;10.95;6.68;;;;;;;31.17;43.73;94222.91;5064611;28;20092;-81
2023/07/16 10:25:26;;;;;;;15.18;7.07;;;;;;;31.21;43.75;94218.06;5064669;28;20192;-81
2023/07/16 10:27:53;;;;;;;14.57;6.72;;;;;;;31.17;42.89;94217.41;5064765;28;20219;-81
2023/07/16 10:30:19;;;;;;;11.05;6.30;;;;;;;31.22;42.44;94214.09;5064611;28;20082;-81
2023/07/16 10:32:45;;;;;;;9.38;6.50;;;;;;;31.34;43.56;94205.09;5064875;28;20323;-81
2023/07/16 10:35:12;;;;;;;19.33;6.70;;;;;;;31.51;43.41;94196.78;5064397;28;20059;-81
2023/07/16 10:37:38;;;;;;;9.93;6.38;;;;;;;31.68;43.40;94194.66;5064257;28;20052;-81
2023/07/16 10:40:05;;;;;;;16.08;7.10;;;;;;;31.82;41.87;94196.97;5064459;28;20025;-81
2023/07/16 10:42:31;;;;;;;9.38;6.72;;;;;;;31.96;41.87;94204.03;5064354;28;20019;-80
2023/07/16 10:45:02;;;;;;;14.80;6.78;;;;;;;31.99;41.42;94198.41;5064617;28;20088;-81
2023/07/16 10:47:34;;;;;;;12.75;7.38;;;;;;;32.09;40.86;94196.50;5064587;28;20020;-81
2023/07/16 10:50:02;;;;;;;17.95;6.82;;;;;;;32.10;40.41;94209.09;5064186;28;20020;-82
2023/07/16 10:52:28;;;;;;;15.02;7.32;;;;;;;32.10;39.86;94211.06;5064190;28;20016;-81
2023/07/16 10:54:54;;;;;;;13.77;6.43;;;;;;;32.03;39.61;94203.81;5063730;28;20212;-81
2023/07/16 10:57:22;;;;;;;11.98;6.47;;;;;;;31.84;40.72;94207.56;5063763;28;20082;-80
2023/07/16 10:59:49;;;;;;;18.40;7.15;;;;;;;31.88;39.69;94197.19;5064124;28;20027;-81
2023/07/16 11:02:15;;;;;;;18.83;7.47;;;;;;;31.77;38.92;94203.03;5064080;28;20028;-81
2023/07/16 11:04:42;;;;;;;11.82;6.30;;;;;;;31.61;37.74;94195.69;5064157;28;20020;-81
2023/07/16 11:07:09;;;;;;;11.88;6.60;;;;;;;31.65;36.81;94190.81;5064119;28;20020;-81
2023/07/16 11:09:43;;;;;;;14.52;6.70;;;;;;;31.66;38.01;94197.09;5063498;28;20345;-80
2023/07/16 11:12:14;;;;;;;9.93;6.30;;;;;;;31.58;37.78;94193.78;5063720;28;20021;-81
2023/07/16 11:14:46;;;;;;;13.85;7.25;;;;;;;31.60;37.91;94188.59;5062233;28;20036;-81
2023/07/16 11:17:13;;;;;;;11.80;6.30;;;;;;;31.61;37.60;94190.16;5062519;28;20033;-81
2023/07/16 11:19:40;;;;;;;11.00;6.50;;;;;;;31.68;37.33;94175.38;5063307;28;20218;-81